MiSS Bobbie Fugit — WDC6509 — position and weather

sailwx.info

Track history (hours):
 
Tides and Currents Weather Stations Pressure Air Temp Water Temp Dewpoint Dewpoint Depression Visibility Wind Speed Wind Dir Waves Ship Positions

MiSS Bobbie Fugit

Owner: American Commercial Lines LLC, Jeffersonville, IN. More information available from US FCC via Universal Licensing System and Coast Guard Vessel Documentation Center.

Last reported at 2017-Dec-11 01:30 UTC. Time now 2017-Dec-11 01:49 UTC.
Position N 29°35' W 090°39'.

Length 27 m; draft 3.3 m.

Type: Towing. MMSI: 367057310.

Date/timePositionNaut miles runAvg speedWind from/ knotsBaromVisibWave heightAir tempDewpointWater temp
2017-Dec-11 01:30N 29°35' W 090°39'3 5.9
2017-Dec-11 01:00N 29°37' W 090°42'2 4.0
2017-Dec-11 00:30N 29°35' W 090°43'2 4.5
2017-Dec-11 00:00N 29°34' W 090°45'0 0.8
2017-Dec-10 23:30N 29°33' W 090°45'0 0.1
2017-Dec-10 23:00N 29°33' W 090°45'0 0.0
2017-Dec-10 22:30N 29°33' W 090°45'1 2.6
2017-Dec-10 22:00N 29°32' W 090°46'3 6.2
2017-Dec-10 21:30N 29°32' W 090°50'  
2017-Dec-08 15:14N 29°36' W 090°58'1 5.4
2017-Dec-08 14:57N 29°35' W 090°58'2 5.4
2017-Dec-08 14:30N 29°34' W 090°55'3 5.5
2017-Dec-08 13:59N 29°32' W 090°52'3 5.3
2017-Dec-08 13:30N 29°32' W 090°49'3 5.3
2017-Dec-08 13:00N 29°32' W 090°46'2 4.2
2017-Dec-08 12:31N 29°34' W 090°45'2 3.6
2017-Dec-08 12:01N 29°35' W 090°43'2 3.6
2017-Dec-08 11:30N 29°36' W 090°43'1 1.9
2017-Dec-08 11:00N 29°37' W 090°41'0 0.3
2017-Dec-08 10:30N 29°37' W 090°41'1 1.9
2017-Dec-08 10:01N 29°36' W 090°40'2 3.8
2017-Dec-08 09:30N 29°35' W 090°38'2 4.1
2017-Dec-08 09:00N 29°35' W 090°36'2 4.4
2017-Dec-08 08:30N 29°34' W 090°34'2 4.6
2017-Dec-08 08:00N 29°34' W 090°31'  
Track history (hours):
 
Tides and Currents Weather Stations Pressure Air Temp Water Temp Dewpoint Dewpoint Depression Visibility Wind Speed Wind Dir Waves Ship Positions

MiSS Bobbie Fugit

Owner: American Commercial Lines LLC, Jeffersonville, IN. More information available from US FCC via Universal Licensing System and Coast Guard Vessel Documentation Center.

Last reported at 2017-Dec-11 01:30 UTC. Time now 2017-Dec-11 01:49 UTC.
Position N 29°35' W 090°39'.

Length 27 m; draft 3.3 m.

Type: Towing. MMSI: 367057310.

Date/timePositionNaut miles runAvg speedWind from/ knotsBaromVisibWave heightAir tempDewpointWater temp
2017-Dec-11 01:30N 29°35' W 090°39'3 5.9
2017-Dec-11 01:00N 29°37' W 090°42'2 4.0
2017-Dec-11 00:30N 29°35' W 090°43'2 4.5
2017-Dec-11 00:00N 29°34' W 090°45'0 0.8
2017-Dec-10 23:30N 29°33' W 090°45'0 0.1
2017-Dec-10 23:00N 29°33' W 090°45'0 0.0
2017-Dec-10 22:30N 29°33' W 090°45'1 2.6
2017-Dec-10 22:00N 29°32' W 090°46'3 6.2
2017-Dec-10 21:30N 29°32' W 090°50'  
2017-Dec-08 15:14N 29°36' W 090°58'1 5.4
2017-Dec-08 14:57N 29°35' W 090°58'2 5.4
2017-Dec-08 14:30N 29°34' W 090°55'3 5.5
2017-Dec-08 13:59N 29°32' W 090°52'3 5.3
2017-Dec-08 13:30N 29°32' W 090°49'3 5.3
2017-Dec-08 13:00N 29°32' W 090°46'2 4.2
2017-Dec-08 12:31N 29°34' W 090°45'2 3.6
2017-Dec-08 12:01N 29°35' W 090°43'2 3.6
2017-Dec-08 11:30N 29°36' W 090°43'1 1.9
2017-Dec-08 11:00N 29°37' W 090°41'0 0.3
2017-Dec-08 10:30N 29°37' W 090°41'1 1.9
2017-Dec-08 10:01N 29°36' W 090°40'2 3.8
2017-Dec-08 09:30N 29°35' W 090°38'2 4.1
2017-Dec-08 09:00N 29°35' W 090°36'2 4.4
2017-Dec-08 08:30N 29°34' W 090°34'2 4.6
2017-Dec-08 08:00N 29°34' W 090°31'  

Dump ship's entire track history